createdAt,value
2017-09-24T00:01:23.601Z,43.93
2017-09-24T00:04:25.650Z,43.80
2017-09-24T00:07:26.953Z,42.93
2017-09-24T00:10:28.354Z,44.40
2017-09-24T00:13:29.611Z,44.20
2017-09-24T00:16:31.643Z,41.67
2017-09-24T00:19:32.926Z,43.73
2017-09-24T00:22:34.957Z,46.20
2017-09-24T00:25:36.253Z,49.23
2017-09-24T00:28:39.685Z,45.17
2017-09-24T00:31:41.680Z,45.53
2017-09-24T00:34:43.815Z,46.50
2017-09-24T00:37:45.086Z,43.83
2017-09-24T00:40:46.376Z,45.73
2017-09-24T00:43:48.438Z,45.20
2017-09-24T00:46:50.495Z,47.30
2017-09-24T00:49:51.793Z,45.63
2017-09-24T00:52:53.113Z,45.77
2017-09-24T00:55:55.192Z,43.47
2017-09-24T00:58:56.510Z,45.83
2017-09-24T01:01:57.783Z,45.40
2017-09-24T01:04:59.795Z,45.73
2017-09-24T01:08:01.143Z,42.70
2017-09-24T01:11:02.451Z,43.93
2017-09-24T01:14:03.788Z,43.77
2017-09-24T01:17:05.780Z,43.60
2017-09-24T01:20:07.123Z,44.13
2017-09-24T01:23:08.551Z,46.63
2017-09-24T01:26:10.602Z,43.60
2017-09-24T01:29:11.929Z,41.57
2017-09-24T01:32:13.311Z,41.30
2017-09-24T01:35:14.659Z,39.53
2017-09-24T01:38:15.967Z,41.83
2017-09-24T01:41:17.286Z,39.77
2017-09-24T01:44:18.631Z,41.27
2017-09-24T01:47:20.701Z,40.57
2017-09-24T01:50:21.993Z,42.17
2017-09-24T01:53:23.321Z,42.23
2017-09-24T01:56:24.615Z,41.90
2017-09-24T01:59:25.978Z,41.30
2017-09-24T02:02:28.021Z,43.10
2017-09-24T02:05:29.318Z,42.53
2017-09-24T02:08:30.789Z,40.60
2017-09-24T02:11:32.061Z,41.10
2017-09-24T02:14:33.364Z,40.87
2017-09-24T02:17:34.626Z,43.97
2017-09-24T02:20:35.896Z,39.60
2017-09-24T02:23:37.170Z,41.80
2017-09-24T02:26:38.484Z,41.00
2017-09-24T02:29:39.734Z,42.07
2017-09-24T02:32:41.014Z,41.07
2017-09-24T02:35:42.287Z,40.87
2017-09-24T02:38:44.331Z,40.23
2017-09-24T02:41:45.577Z,42.47
2017-09-24T02:44:46.867Z,43.50
2017-09-24T02:47:48.282Z,41.80
2017-09-24T02:50:49.524Z,42.60
2017-09-24T02:53:50.930Z,41.37
2017-09-24T02:56:52.190Z,40.50
2017-09-24T02:59:53.496Z,41.43
2017-09-24T03:02:55.530Z,47.17
2017-09-24T03:05:56.818Z,42.33
2017-09-24T03:08:58.815Z,37.10
2017-09-24T03:12:00.111Z,37.73
2017-09-24T03:15:01.338Z,39.27
2017-09-24T03:18:02.640Z,40.97
2017-09-24T03:21:03.905Z,39.47
2017-09-24T03:24:05.203Z,40.10
2017-09-24T03:27:06.714Z,40.80
2017-09-24T03:30:08.000Z,41.00
2017-09-24T03:33:09.306Z,38.97
2017-09-24T03:36:10.588Z,40.67
2017-09-24T03:39:11.883Z,41.57
2017-09-24T03:42:13.155Z,39.33
2017-09-24T03:45:14.414Z,40.07
2017-09-24T03:48:15.676Z,38.87
2017-09-24T03:51:16.952Z,39.13
2017-09-24T03:54:18.350Z,36.07
2017-09-24T03:57:19.622Z,39.30
2017-09-24T04:00:21.088Z,39.80
2017-09-24T04:03:22.353Z,41.20
2017-09-24T04:06:23.625Z,40.47
2017-09-24T04:09:25.637Z,40.00
2017-09-24T04:12:26.949Z,39.70
2017-09-24T04:15:28.227Z,38.80
2017-09-24T04:18:29.539Z,36.63
2017-09-24T04:21:30.991Z,38.83
2017-09-24T04:24:32.251Z,36.00
2017-09-24T04:27:33.543Z,36.43
2017-09-24T04:30:34.792Z,37.83
2017-09-24T04:33:36.101Z,37.10
2017-09-24T04:36:37.353Z,36.37
2017-09-24T04:39:38.635Z,40.53
2017-09-24T04:42:39.894Z,36.83
2017-09-24T04:45:41.181Z,36.30
2017-09-24T04:48:42.443Z,36.40
2017-09-24T04:51:43.708Z,36.50
2017-09-24T04:54:45.104Z,36.00
2017-09-24T04:57:47.119Z,36.60
2017-09-24T05:00:48.403Z,34.07
2017-09-24T05:03:49.667Z,37.13
2017-09-24T05:06:50.964Z,38.17
2017-09-24T05:09:52.271Z,36.27
2017-09-24T05:12:54.337Z,35.03
2017-09-24T05:15:56.472Z,35.87
2017-09-24T05:18:57.751Z,33.47
2017-09-24T05:21:59.767Z,36.47
2017-09-24T05:25:01.059Z,34.93
2017-09-24T05:28:02.370Z,36.50
2017-09-24T05:31:03.639Z,35.37
2017-09-24T05:34:05.263Z,36.50
2017-09-24T05:37:06.516Z,32.60
2017-09-24T05:40:07.804Z,34.67
2017-09-24T05:43:09.063Z,36.40
2017-09-24T05:46:11.069Z,38.07
2017-09-24T05:49:12.334Z,37.00
2017-09-24T05:52:13.643Z,36.47
2017-09-24T05:55:15.630Z,34.20
2017-09-24T05:58:16.902Z,32.83
2017-09-24T06:01:18.207Z,33.00
2017-09-24T06:04:19.502Z,34.87
2017-09-24T06:07:20.779Z,37.30
2017-09-24T06:10:22.078Z,33.30
2017-09-24T06:13:23.740Z,36.80
2017-09-24T06:16:25.004Z,34.43
2017-09-24T06:19:26.301Z,36.00
2017-09-24T06:22:27.566Z,36.60
2017-09-24T06:25:28.858Z,35.17
2017-09-24T06:28:30.135Z,34.20
2017-09-24T06:31:32.175Z,34.27
2017-09-24T06:34:33.583Z,33.23
2017-09-24T06:37:34.851Z,34.60
2017-09-24T06:40:36.155Z,33.90
2017-09-24T06:43:38.159Z,31.00
2017-09-24T06:46:39.713Z,33.23
2017-09-24T06:49:40.977Z,33.37
2017-09-24T06:52:42.281Z,31.50
2017-09-24T06:55:44.309Z,32.67
2017-09-24T06:58:45.628Z,33.40
2017-09-24T07:01:46.926Z,33.63
2017-09-24T07:04:48.248Z,34.57
2017-09-24T07:07:49.531Z,31.57
2017-09-24T07:10:51.563Z,32.47
2017-09-24T07:13:52.842Z,33.03
2017-09-24T07:16:54.929Z,34.23
2017-09-24T07:19:56.595Z,34.90
2017-09-24T07:22:57.836Z,37.17
2017-09-24T07:25:59.120Z,34.17
2017-09-24T07:29:00.375Z,32.30
2017-09-24T07:32:01.649Z,34.67
2017-09-24T07:35:02.940Z,35.33
2017-09-24T07:38:04.225Z,39.00
2017-09-24T07:41:05.468Z,36.43
2017-09-24T07:44:06.776Z,35.20
2017-09-24T07:47:08.053Z,34.17
2017-09-24T07:50:09.489Z,36.27
2017-09-24T07:53:10.751Z,35.83
2017-09-24T07:56:12.027Z,37.80
2017-09-24T07:59:13.391Z,39.20
2017-09-24T08:02:14.672Z,36.70
2017-09-24T08:05:22.963Z,35.80
2017-09-24T08:08:24.955Z,38.53
2017-09-24T08:11:26.252Z,41.50
2017-09-24T08:14:27.508Z,42.07
2017-09-24T08:17:28.804Z,39.90
2017-09-24T08:20:30.075Z,44.07
2017-09-24T08:23:31.396Z,43.90
2017-09-24T08:26:32.656Z,44.80
2017-09-24T08:29:33.923Z,43.60
2017-09-24T08:32:35.198Z,42.93
2017-09-24T08:35:36.481Z,43.60
2017-09-24T08:38:37.761Z,47.07
2017-09-24T08:41:39.049Z,45.47
2017-09-24T08:44:40.432Z,51.60
2017-09-24T08:47:41.720Z,46.37
2017-09-24T08:50:43.031Z,48.07
2017-09-24T08:53:44.296Z,48.53
2017-09-24T08:56:45.607Z,50.90
2017-09-24T08:59:47.618Z,47.93
2017-09-24T09:02:48.927Z,50.50
2017-09-24T09:05:51.009Z,49.37
2017-09-24T09:08:52.304Z,56.80
2017-09-24T09:11:53.556Z,59.43
2017-09-24T09:14:55.634Z,52.87
2017-09-24T09:17:56.905Z,55.30
2017-09-24T09:20:58.970Z,53.00
2017-09-24T09:24:00.959Z,55.33
2017-09-24T09:27:02.264Z,55.70
2017-09-24T09:30:10.654Z,53.37
2017-09-24T09:33:20.327Z,56.50
2017-09-24T09:36:21.639Z,58.03
2017-09-24T09:39:22.917Z,55.00
2017-09-24T09:42:24.236Z,59.80
2017-09-24T09:45:44.174Z,56.17
2017-09-24T09:48:46.187Z,56.87
2017-09-24T09:51:47.561Z,60.53
2017-09-24T09:54:48.887Z,55.20
2017-09-24T09:57:50.197Z,55.33
2017-09-24T10:00:52.324Z,59.13
2017-09-24T10:03:53.756Z,33.43
2017-09-24T10:07:13.592Z,51.10
2017-09-24T10:10:15.643Z,45.03
2017-09-24T10:13:16.967Z,47.43
2017-09-24T10:16:18.265Z,47.93
2017-09-24T10:19:20.451Z,54.33
2017-09-24T10:22:21.748Z,51.90
2017-09-24T10:25:23.079Z,41.27
2017-09-24T10:28:42.708Z,40.90
2017-09-24T10:31:45.538Z,36.47
2017-09-24T10:34:46.823Z,34.73
2017-09-24T10:37:48.151Z,40.67
2017-09-24T10:40:49.549Z,36.50
2017-09-24T10:43:51.582Z,41.20
2017-09-24T10:46:52.898Z,33.00
2017-09-24T10:49:54.184Z,31.13
2017-09-24T10:52:55.471Z,31.70
2017-09-24T10:55:56.763Z,32.43
2017-09-24T10:58:58.053Z,26.03
2017-09-24T11:02:00.110Z,31.60
2017-09-24T11:05:01.426Z,29.13
2017-09-24T11:08:02.755Z,29.27
2017-09-24T11:11:04.042Z,27.97
2017-09-24T11:14:05.336Z,28.60
2017-09-24T11:17:06.578Z,28.53
2017-09-24T11:20:07.839Z,31.20
2017-09-24T11:23:09.089Z,30.00
2017-09-24T11:26:10.448Z,26.43
2017-09-24T11:29:11.715Z,23.90
2017-09-24T11:32:12.983Z,25.70
2017-09-24T11:35:14.248Z,38.67
2017-09-24T11:38:16.266Z,24.87
2017-09-24T11:41:17.563Z,24.37
2017-09-24T11:44:19.594Z,25.93
2017-09-24T11:47:20.836Z,29.13
2017-09-24T11:50:22.121Z,26.50
2017-09-24T11:53:24.132Z,28.50
2017-09-24T11:56:25.398Z,32.00
2017-09-24T11:59:26.726Z,29.13
2017-09-24T12:02:28.019Z,30.97
2017-09-24T12:05:29.436Z,33.57
2017-09-24T12:08:30.686Z,27.43
2017-09-24T12:11:31.954Z,25.07
2017-09-24T12:14:33.668Z,29.23
2017-09-24T12:17:34.921Z,28.50
2017-09-24T12:20:36.231Z,25.47
2017-09-24T12:23:37.513Z,27.07
2017-09-24T12:26:38.801Z,22.20
2017-09-24T12:29:40.083Z,24.67
2017-09-24T12:32:41.399Z,23.37
2017-09-24T12:35:49.787Z,22.17
2017-09-24T12:38:51.090Z,21.90
2017-09-24T12:41:52.371Z,20.43
2017-09-24T12:44:54.435Z,19.57
2017-09-24T12:47:56.488Z,20.47
2017-09-24T12:50:58.708Z,21.33
2017-09-24T12:53:59.984Z,22.60
2017-09-24T12:57:01.387Z,19.97
2017-09-24T13:00:02.718Z,24.00
2017-09-24T13:03:04.803Z,23.30
2017-09-24T13:06:06.142Z,19.90
2017-09-24T13:09:08.176Z,19.47
2017-09-24T13:12:09.476Z,23.67
2017-09-24T13:15:10.779Z,19.50
2017-09-24T13:18:12.084Z,21.63
2017-09-24T13:21:13.359Z,20.50
2017-09-24T13:24:14.860Z,19.13
2017-09-24T13:27:16.130Z,21.10
2017-09-24T13:30:17.440Z,21.17
2017-09-24T13:33:19.461Z,21.80
2017-09-24T13:36:20.798Z,18.17
2017-09-24T13:39:22.072Z,18.73
2017-09-24T13:42:23.382Z,17.07
2017-09-24T13:45:24.675Z,17.07
2017-09-24T13:48:25.961Z,17.93
2017-09-24T13:51:28.153Z,18.93
2017-09-24T13:54:29.459Z,16.77
2017-09-24T13:57:30.830Z,18.70
2017-09-24T14:00:32.886Z,14.07
2017-09-24T14:03:35.118Z,17.00
2017-09-24T14:06:37.294Z,18.50
2017-09-24T14:09:40.538Z,21.47
2017-09-24T14:12:42.248Z,22.60
2017-09-24T14:15:43.544Z,22.10
2017-09-24T14:18:47.178Z,21.17
2017-09-24T14:21:48.649Z,19.70
2017-09-24T14:24:50.782Z,16.67
2017-09-24T14:27:52.034Z,18.23
2017-09-24T14:30:53.331Z,19.63
2017-09-24T14:33:54.637Z,17.07
2017-09-24T14:36:55.935Z,19.07
2017-09-24T14:39:57.228Z,22.00
2017-09-24T14:42:58.518Z,20.30
2017-09-24T14:45:59.803Z,21.17
2017-09-24T14:49:01.800Z,21.00
2017-09-24T14:52:03.143Z,20.20
2017-09-24T14:55:04.418Z,17.90
2017-09-24T14:58:05.709Z,18.33
2017-09-24T15:01:07.720Z,17.17
2017-09-24T15:04:09.033Z,19.80
2017-09-24T15:07:11.064Z,19.20
2017-09-24T15:10:12.355Z,18.20
2017-09-24T15:13:13.703Z,19.30
2017-09-24T15:16:15.047Z,19.13
2017-09-24T15:19:17.079Z,18.77
2017-09-24T15:22:18.439Z,19.53
2017-09-24T15:25:19.730Z,17.77
2017-09-24T15:28:21.022Z,19.63
2017-09-24T15:31:22.312Z,19.07
2017-09-24T15:34:24.387Z,16.93
2017-09-24T15:37:25.620Z,14.70
2017-09-24T15:40:27.650Z,15.27
2017-09-24T15:43:28.935Z,12.80
2017-09-24T15:46:30.940Z,15.40
2017-09-24T15:49:32.419Z,15.50
2017-09-24T15:52:33.696Z,13.53
2017-09-24T15:55:35.715Z,14.53
2017-09-24T15:58:36.988Z,13.60
2017-09-24T16:01:38.290Z,15.90
2017-09-24T16:04:39.583Z,18.23
2017-09-24T16:07:40.882Z,14.57
2017-09-24T16:10:42.143Z,14.23
2017-09-24T16:13:43.486Z,14.10
2017-09-24T16:16:44.876Z,11.70
2017-09-24T16:19:46.160Z,10.10
2017-09-24T16:22:48.220Z,10.50
2017-09-24T16:25:50.233Z,15.87
2017-09-24T16:28:51.517Z,11.37
2017-09-24T16:31:52.800Z,8.80
2017-09-24T16:34:54.126Z,9.87
2017-09-24T16:37:55.478Z,8.93
2017-09-24T16:40:56.775Z,8.13
2017-09-24T16:43:58.096Z,7.73
2017-09-24T16:47:00.136Z,7.23
2017-09-24T16:50:01.450Z,6.63
2017-09-24T16:53:02.707Z,7.90
2017-09-24T16:56:04.032Z,7.67
2017-09-24T16:59:06.715Z,6.70
2017-09-24T17:02:08.045Z,6.93
2017-09-24T17:05:09.924Z,8.63
2017-09-24T17:08:12.585Z,7.00
2017-09-24T17:11:14.921Z,8.13
2017-09-24T17:14:17.156Z,7.93
2017-09-24T17:17:20.255Z,7.60
2017-09-24T17:20:24.294Z,8.20
2017-09-24T17:23:26.614Z,7.00
2017-09-24T17:26:28.700Z,7.30
2017-09-24T17:29:30.071Z,8.57
2017-09-24T17:32:31.339Z,10.03
2017-09-24T17:35:34.983Z,12.60
2017-09-24T17:38:36.629Z,15.37
2017-09-24T17:41:38.796Z,13.17
2017-09-24T17:44:40.986Z,14.70
2017-09-24T17:47:42.851Z,15.20
2017-09-24T17:50:45.300Z,12.17
2017-09-24T17:53:47.378Z,12.73
2017-09-24T17:56:48.638Z,12.10
2017-09-24T17:59:49.940Z,12.60
2017-09-24T18:02:51.692Z,12.40
2017-09-24T18:05:53.085Z,12.30
2017-09-24T18:08:55.210Z,11.50
2017-09-24T18:11:57.362Z,12.60
2017-09-24T18:14:59.283Z,11.57
2017-09-24T18:18:00.780Z,10.50
2017-09-24T18:21:03.443Z,11.27
2017-09-24T18:24:05.507Z,10.17
2017-09-24T18:27:07.095Z,11.07
2017-09-24T18:30:09.239Z,10.00
2017-09-24T18:33:11.276Z,10.70
2017-09-24T18:36:13.408Z,10.40
2017-09-24T18:39:14.689Z,9.50
2017-09-24T18:42:16.806Z,10.23
2017-09-24T18:45:18.176Z,8.47
2017-09-24T18:48:20.748Z,8.13
2017-09-24T18:51:22.987Z,8.87
2017-09-24T18:54:26.449Z,8.80
2017-09-24T18:57:29.306Z,8.30
2017-09-24T19:00:30.578Z,8.43
2017-09-24T19:03:33.619Z,7.37
2017-09-24T19:06:36.922Z,8.10
2017-09-24T19:09:39.215Z,8.30
2017-09-24T19:12:41.649Z,7.57
2017-09-24T19:15:43.001Z,6.90
2017-09-24T19:18:45.558Z,7.40
2017-09-24T19:21:47.659Z,6.13
2017-09-24T19:24:49.149Z,7.10
2017-09-24T19:27:50.987Z,6.87
2017-09-24T19:30:52.696Z,6.97
2017-09-24T19:33:55.552Z,6.30
2017-09-24T19:36:58.146Z,6.47
2017-09-24T19:40:00.564Z,7.00
2017-09-24T19:43:02.500Z,6.17
2017-09-24T19:46:03.852Z,6.63
2017-09-24T19:49:06.942Z,6.43
2017-09-24T19:52:09.590Z,6.33
2017-09-24T19:55:11.694Z,6.67
2017-09-24T19:58:12.944Z,6.80
2017-09-24T20:01:15.725Z,7.47
2017-09-24T20:04:17.135Z,6.77
2017-09-24T20:07:18.446Z,107.63
2017-09-24T20:10:20.943Z,9.00
2017-09-24T20:13:23.063Z,8.93
2017-09-24T20:16:24.378Z,8.50
2017-09-24T20:19:27.845Z,7.97
2017-09-24T20:22:34.189Z,7.10
2017-09-24T20:25:35.447Z,6.90
2017-09-24T20:28:36.739Z,8.37
2017-09-24T20:31:38.168Z,8.10
2017-09-24T20:34:40.225Z,8.50
2017-09-24T20:37:42.243Z,8.00
2017-09-24T20:40:43.530Z,7.90
2017-09-24T20:43:44.768Z,7.67
2017-09-24T20:46:46.031Z,8.73
2017-09-24T20:49:47.304Z,8.27
2017-09-24T20:52:48.772Z,8.10
2017-09-24T20:55:50.119Z,7.87
2017-09-24T20:58:51.446Z,8.07
2017-09-24T21:01:53.450Z,7.60
2017-09-24T21:04:54.885Z,7.43
2017-09-24T21:07:56.180Z,8.30
2017-09-24T21:10:57.566Z,9.60
2017-09-24T21:13:59.606Z,8.50
2017-09-24T21:17:01.018Z,7.97
2017-09-24T21:20:05.524Z,7.67
2017-09-24T21:23:06.878Z,8.23
2017-09-24T21:26:08.194Z,7.67
2017-09-24T21:29:10.233Z,8.33
2017-09-24T21:32:11.540Z,8.60
2017-09-24T21:35:12.788Z,8.37
2017-09-24T21:38:14.101Z,9.50
2017-09-24T21:41:16.095Z,8.50
2017-09-24T21:44:17.359Z,8.90
2017-09-24T21:47:18.603Z,9.07
2017-09-24T21:50:19.911Z,8.30
2017-09-24T21:53:21.322Z,7.70
2017-09-24T21:56:22.614Z,8.23
2017-09-24T21:59:24.667Z,9.03
2017-09-24T22:02:25.927Z,8.70
2017-09-24T22:05:27.236Z,9.90
2017-09-24T22:08:28.479Z,8.80
2017-09-24T22:11:30.531Z,10.17
2017-09-24T22:14:31.952Z,9.10
2017-09-24T22:17:33.956Z,9.83
2017-09-24T22:20:35.609Z,9.83
2017-09-24T22:23:36.859Z,10.50
2017-09-24T22:26:38.161Z,10.30
2017-09-24T22:29:39.410Z,11.00
2017-09-24T22:32:41.441Z,11.23
2017-09-24T22:35:42.699Z,10.40
2017-09-24T22:38:43.976Z,11.50
2017-09-24T22:41:46.124Z,11.27
2017-09-24T22:44:47.403Z,10.40
2017-09-24T22:47:48.694Z,11.40
2017-09-24T22:50:49.992Z,11.57
2017-09-24T22:53:52.049Z,11.40
2017-09-24T22:56:53.327Z,12.20
2017-09-24T22:59:54.657Z,11.67
2017-09-24T23:02:56.659Z,11.90
2017-09-24T23:05:57.950Z,11.47
2017-09-24T23:08:59.188Z,11.57
2017-09-24T23:12:00.486Z,12.00
2017-09-24T23:15:01.732Z,11.20
2017-09-24T23:18:03.055Z,13.23
2017-09-24T23:21:04.343Z,13.57
2017-09-24T23:24:05.618Z,14.00
2017-09-24T23:27:06.884Z,12.00
2017-09-24T23:30:08.175Z,10.93
2017-09-24T23:33:09.435Z,11.00
2017-09-24T23:36:10.715Z,11.47
2017-09-24T23:39:11.990Z,11.03
2017-09-24T23:42:13.266Z,11.53
2017-09-24T23:45:15.280Z,12.33
2017-09-24T23:48:16.702Z,11.90
2017-09-24T23:51:17.939Z,12.63
2017-09-24T23:54:19.224Z,11.90
2017-09-24T23:57:20.459Z,12.73
